createdAt,value
2022-08-05T00:01:49.114Z,24.04
2022-08-05T00:04:17.874Z,24.28
2022-08-05T00:06:47.064Z,23.90
2022-08-05T00:09:16.056Z,23.69
2022-08-05T00:11:49.190Z,23.58
2022-08-05T00:14:27.822Z,23.50
2022-08-05T00:16:57.964Z,23.42
2022-08-05T00:19:33.252Z,23.53
2022-08-05T00:22:02.199Z,24.03
2022-08-05T00:24:30.978Z,23.74
2022-08-05T00:26:59.904Z,23.46
2022-08-05T00:29:37.569Z,23.40
2022-08-05T00:32:12.532Z,23.24
2022-08-05T00:35:04.182Z,23.18
2022-08-05T00:37:35.887Z,23.43
2022-08-05T00:40:26.723Z,23.72
2022-08-05T00:42:59.828Z,23.41
2022-08-05T00:45:38.121Z,23.21
2022-08-05T00:48:27.731Z,23.07
2022-08-05T00:50:59.095Z,22.96
2022-08-05T00:54:00.792Z,22.91
2022-08-05T00:56:17.393Z,23.57
2022-08-05T00:58:50.505Z,24.15
2022-08-05T01:01:41.973Z,23.70
2022-08-05T01:04:13.851Z,23.19
2022-08-05T01:06:41.915Z,22.99
2022-08-05T01:09:14.793Z,22.85
2022-08-05T01:11:46.433Z,22.78
2022-08-05T01:14:42.162Z,22.75
2022-08-05T01:17:12.374Z,23.85
2022-08-05T01:20:01.265Z,25.31
2022-08-05T01:22:47.798Z,23.88
2022-08-05T01:25:54.062Z,23.21
2022-08-05T01:28:39.680Z,23.05
2022-08-05T01:31:13.355Z,23.01
2022-08-05T01:33:53.497Z,23.01
2022-08-05T01:36:28.365Z,25.03
2022-08-05T01:39:01.127Z,24.48
2022-08-05T01:41:33.996Z,23.34
2022-08-05T01:44:02.852Z,22.90
2022-08-05T01:46:42.099Z,22.75
2022-08-05T01:49:24.273Z,22.57
2022-08-05T01:51:59.464Z,22.95
2022-08-05T01:54:46.152Z,23.47
2022-08-05T01:58:13.648Z,22.73
2022-08-05T02:00:12.036Z,22.56
2022-08-05T02:02:54.307Z,22.33
2022-08-05T02:05:30.864Z,22.26
2022-08-05T02:08:02.091Z,22.16
2022-08-05T02:10:38.126Z,22.34
2022-08-05T02:13:17.765Z,23.60
2022-08-05T02:15:54.366Z,22.56
2022-08-05T02:18:35.276Z,22.25
2022-08-05T02:21:15.128Z,22.12
2022-08-05T02:23:46.030Z,22.03
2022-08-05T02:26:22.514Z,23.77
2022-08-05T02:28:51.033Z,22.95
2022-08-05T02:31:23.855Z,22.36
2022-08-05T02:33:57.488Z,22.15
2022-08-05T02:36:31.563Z,21.94
2022-08-05T02:39:02.308Z,21.86
2022-08-05T02:41:42.876Z,23.41
2022-08-05T02:44:21.883Z,22.72
2022-08-05T02:46:58.731Z,21.83
2022-08-05T02:49:40.893Z,21.62
2022-08-05T02:52:29.918Z,21.35
2022-08-05T02:55:01.851Z,21.98
2022-08-05T02:58:09.951Z,21.86
2022-08-05T03:00:22.105Z,20.98
2022-08-05T03:02:54.082Z,20.71
2022-08-05T03:06:54.060Z,20.64
2022-08-05T03:08:11.749Z,20.61
2022-08-05T03:11:55.638Z,20.50
2022-08-05T03:13:51.510Z,21.95
2022-08-05T03:16:21.617Z,21.78
2022-08-05T03:18:49.055Z,21.02
2022-08-05T03:21:16.703Z,20.81
2022-08-05T03:23:45.553Z,20.57
2022-08-05T03:26:31.941Z,20.43
2022-08-05T03:29:00.445Z,20.28
2022-08-05T03:31:57.262Z,20.76
2022-08-05T03:34:24.448Z,20.40
2022-08-05T03:36:52.338Z,20.21
2022-08-05T03:39:27.040Z,20.30
2022-08-05T03:41:56.704Z,20.24
2022-08-05T03:44:24.875Z,20.14
2022-08-05T03:46:56.656Z,21.50
2022-08-05T03:49:51.053Z,21.39
2022-08-05T03:55:34.350Z,20.59
2022-08-05T03:56:05.556Z,20.34
2022-08-05T03:58:28.858Z,20.24
2022-08-05T04:01:00.310Z,20.14
2022-08-05T04:03:29.520Z,20.15
2022-08-05T04:05:59.398Z,21.93
2022-08-05T04:08:34.953Z,20.95
2022-08-05T04:11:08.716Z,20.49
2022-08-05T04:13:50.407Z,20.34
2022-08-05T04:16:25.093Z,20.24
2022-08-05T04:18:57.925Z,20.16
2022-08-05T04:22:09.624Z,21.35
2022-08-05T04:24:14.235Z,21.53
2022-08-05T04:26:47.395Z,20.65
2022-08-05T04:29:14.679Z,20.41
2022-08-05T04:31:42.921Z,20.30
2022-08-05T04:34:32.890Z,20.15
2022-08-05T04:36:57.882Z,20.98
2022-08-05T04:39:27.611Z,21.50
2022-08-05T04:41:55.543Z,20.53
2022-08-05T04:44:30.017Z,20.32
2022-08-05T04:47:08.924Z,20.17
2022-08-05T04:50:01.331Z,20.10
2022-08-05T04:52:28.465Z,20.02
2022-08-05T04:54:57.343Z,20.08
2022-08-05T04:57:29.149Z,21.83
2022-08-05T04:59:58.624Z,21.26
2022-08-05T05:02:36.407Z,20.64
2022-08-05T05:05:16.681Z,20.42
2022-08-05T05:08:14.382Z,20.31
2022-08-05T05:10:56.755Z,20.29
2022-08-05T05:13:24.223Z,20.27
2022-08-05T05:15:56.819Z,22.01
2022-08-05T05:18:33.372Z,21.24
2022-08-05T05:21:02.247Z,20.66
2022-08-05T05:23:39.327Z,20.40
2022-08-05T05:26:18.560Z,20.35
2022-08-05T05:28:46.113Z,20.45
2022-08-05T05:31:13.965Z,22.18
2022-08-05T05:33:59.148Z,21.34
2022-08-05T05:36:28.670Z,20.85
2022-08-05T05:38:58.055Z,20.72
2022-08-05T05:41:26.493Z,20.67
2022-08-05T05:44:35.513Z,21.07
2022-08-05T05:46:56.248Z,22.61
2022-08-05T05:49:26.986Z,21.53
2022-08-05T05:51:55.684Z,21.04
2022-08-05T05:54:50.374Z,20.91
2022-08-05T05:57:13.881Z,20.82
2022-08-05T05:59:48.850Z,20.78
2022-08-05T06:02:16.476Z,22.18
2022-08-05T06:04:44.619Z,22.76
2022-08-05T06:07:16.635Z,21.48
2022-08-05T06:10:01.403Z,21.12
2022-08-05T06:12:31.314Z,20.81
2022-08-05T06:15:03.276Z,20.60
2022-08-05T06:17:31.134Z,20.44
2022-08-05T06:19:59.895Z,20.19
2022-08-05T06:22:29.848Z,20.53
2022-08-05T06:24:58.063Z,21.02
2022-08-05T06:28:12.714Z,20.23
2022-08-05T06:30:20.038Z,19.87
2022-08-05T06:32:50.822Z,19.76
2022-08-05T06:36:03.172Z,19.69
2022-08-05T06:38:11.679Z,19.61
2022-08-05T06:40:44.409Z,19.56
2022-08-05T06:43:58.027Z,19.70
2022-08-05T06:46:03.788Z,20.54
2022-08-05T06:48:54.539Z,19.91
2022-08-05T06:51:29.937Z,19.65
2022-08-05T06:54:04.102Z,19.54
2022-08-05T06:56:34.610Z,19.51
2022-08-05T06:59:09.520Z,19.43
2022-08-05T07:01:41.494Z,19.34
2022-08-05T07:04:10.173Z,19.70
2022-08-05T07:06:37.589Z,20.14
2022-08-05T07:09:11.406Z,19.43
2022-08-05T07:11:41.271Z,19.28
2022-08-05T07:14:30.274Z,19.23
2022-08-05T07:18:02.278Z,19.17
2022-08-05T07:22:39.054Z,19.97
2022-08-05T07:25:22.620Z,19.45
2022-08-05T07:27:57.742Z,19.13
2022-08-05T07:30:33.591Z,19.12
2022-08-05T07:33:09.286Z,19.11
2022-08-05T07:36:03.319Z,19.16
2022-08-05T07:38:34.461Z,19.68
2022-08-05T07:42:08.121Z,19.76
2022-08-05T07:43:57.790Z,19.13
2022-08-05T07:46:30.664Z,18.98
2022-08-05T07:49:04.918Z,19.01
2022-08-05T07:51:40.856Z,18.98
2022-08-05T07:54:31.510Z,19.16
2022-08-05T07:57:17.982Z,19.98
2022-08-05T07:59:53.607Z,19.42
2022-08-05T08:02:30.835Z,19.30
2022-08-05T08:04:59.188Z,19.30
2022-08-05T08:07:28.379Z,19.27
2022-08-05T08:09:56.581Z,19.26
2022-08-05T08:12:35.310Z,19.38
2022-08-05T08:15:15.307Z,20.30
2022-08-05T08:17:49.934Z,19.73
2022-08-05T08:21:00.452Z,19.61
2022-08-05T08:24:00.338Z,19.55
2022-08-05T08:26:02.705Z,19.57
2022-08-05T08:28:59.830Z,19.74
2022-08-05T08:31:44.886Z,20.88
2022-08-05T08:34:12.294Z,20.78
2022-08-05T08:36:50.186Z,20.42
2022-08-05T08:39:20.740Z,20.31
2022-08-05T08:41:50.814Z,20.26
2022-08-05T08:45:19.418Z,20.33
2022-08-05T08:48:07.009Z,20.26
2022-08-05T08:50:30.155Z,20.44
2022-08-05T08:53:07.874Z,21.63
2022-08-05T08:56:03.555Z,21.02
2022-08-05T08:58:43.389Z,20.77
2022-08-05T09:01:17.383Z,20.71
2022-08-05T09:03:48.202Z,20.83
2022-08-05T09:06:21.441Z,20.96
2022-08-05T09:08:51.912Z,21.30
2022-08-05T09:11:19.215Z,22.21
2022-08-05T09:14:54.414Z,21.75
2022-08-05T09:16:55.120Z,21.53
2022-08-05T09:19:27.953Z,21.64
2022-08-05T09:22:22.532Z,21.59
2022-08-05T09:24:59.760Z,22.72
2022-08-05T09:28:04.308Z,23.21
2022-08-05T09:30:28.463Z,23.57
2022-08-05T09:33:02.651Z,23.64
2022-08-05T09:35:32.800Z,23.60
2022-08-05T09:38:12.148Z,23.45
2022-08-05T09:40:52.386Z,22.95
2022-08-05T09:43:41.207Z,23.00
2022-08-05T09:46:29.121Z,23.04
2022-08-05T09:49:06.802Z,23.03
2022-08-05T09:51:39.879Z,22.94
2022-08-05T09:54:09.491Z,22.93
2022-08-05T09:56:39.499Z,22.79
2022-08-05T09:59:09.335Z,22.68
2022-08-05T10:01:45.805Z,22.59
2022-08-05T10:04:16.105Z,23.27
2022-08-05T10:06:59.418Z,23.84
2022-08-05T10:09:29.860Z,24.21
2022-08-05T10:12:18.525Z,23.07
2022-08-05T10:15:34.305Z,22.68
2022-08-05T10:18:20.254Z,22.61
2022-08-05T10:20:53.759Z,22.43
2022-08-05T10:23:55.246Z,22.43
2022-08-05T10:26:13.803Z,22.38
2022-08-05T10:28:47.139Z,22.63
2022-08-05T10:32:53.997Z,24.36
2022-08-05T10:34:09.100Z,24.78
2022-08-05T10:36:41.260Z,23.33
2022-08-05T10:39:59.367Z,22.98
2022-08-05T10:42:18.882Z,22.83
2022-08-05T10:45:00.215Z,22.83
2022-08-05T10:47:36.863Z,22.90
2022-08-05T10:50:32.341Z,22.90
2022-08-05T10:53:03.145Z,23.94
2022-08-05T10:55:32.863Z,24.56
2022-08-05T10:58:21.016Z,24.17
2022-08-05T11:00:54.892Z,23.64
2022-08-05T11:03:26.938Z,23.44
2022-08-05T11:06:14.576Z,23.39
2022-08-05T11:09:16.903Z,23.49
2022-08-05T11:11:53.627Z,25.14
2022-08-05T11:17:57.745Z,24.29
2022-08-05T11:20:44.011Z,23.97
2022-08-05T11:24:05.321Z,23.93
2022-08-05T11:26:29.013Z,23.92
2022-08-05T11:29:13.901Z,25.44
2022-08-05T11:31:57.686Z,25.73
2022-08-05T11:34:47.459Z,24.60
2022-08-05T11:38:28.186Z,24.42
2022-08-05T11:41:35.146Z,24.51
2022-08-05T11:44:05.653Z,24.43
2022-08-05T11:47:09.996Z,24.49
2022-08-05T11:49:26.403Z,26.21
2022-08-05T11:51:54.265Z,26.84
2022-08-05T11:54:33.355Z,26.41
2022-08-05T11:57:08.418Z,25.64
2022-08-05T11:59:51.298Z,25.49
2022-08-05T12:02:23.908Z,25.14
2022-08-05T12:04:59.011Z,24.91
2022-08-05T12:08:03.683Z,24.91
2022-08-05T12:10:24.773Z,26.48
2022-08-05T12:13:15.509Z,27.27
2022-08-05T12:15:49.775Z,26.30
2022-08-05T12:18:20.758Z,25.70
2022-08-05T12:20:53.260Z,25.42
2022-08-05T12:23:21.225Z,25.09
2022-08-05T12:25:56.902Z,24.96
2022-08-05T12:28:38.235Z,24.58
2022-08-05T12:31:06.140Z,25.46
2022-08-05T12:33:36.643Z,25.62
2022-08-05T12:36:08.978Z,25.16
2022-08-05T12:38:40.258Z,24.41
2022-08-05T12:41:16.503Z,24.31
2022-08-05T12:44:01.533Z,24.12
2022-08-05T12:46:31.837Z,23.99
2022-08-05T12:49:13.136Z,24.23
2022-08-05T12:52:13.619Z,25.04
2022-08-05T12:54:34.205Z,26.36
2022-08-05T12:57:04.469Z,25.68
2022-08-05T13:01:56.720Z,24.93
2022-08-05T13:02:42.305Z,24.82
2022-08-05T13:05:15.399Z,24.78
2022-08-05T13:08:01.046Z,24.91
2022-08-05T13:10:32.998Z,25.12
2022-08-05T13:13:00.555Z,26.74
2022-08-05T13:15:41.529Z,27.54
2022-08-05T13:18:20.358Z,26.29
2022-08-05T13:20:50.141Z,25.89
2022-08-05T13:23:22.541Z,25.66
2022-08-05T13:25:59.218Z,25.57
2022-08-05T13:28:29.723Z,25.58
2022-08-05T13:31:00.182Z,27.12
2022-08-05T13:34:22.860Z,26.51
2022-08-05T13:36:26.832Z,27.35
2022-08-05T13:38:57.760Z,27.50
2022-08-05T13:41:25.695Z,27.31
2022-08-05T13:44:05.520Z,26.55
2022-08-05T13:46:51.035Z,26.22
2022-08-05T13:49:21.089Z,26.00
2022-08-05T13:51:48.911Z,25.82
2022-08-05T13:54:25.010Z,25.62
2022-08-05T13:56:53.599Z,25.49
2022-08-05T13:59:24.308Z,25.77
2022-08-05T14:02:00.733Z,26.98
2022-08-05T14:04:49.574Z,26.31
2022-08-05T14:07:55.375Z,25.68
2022-08-05T14:10:18.617Z,25.40
2022-08-05T14:12:48.900Z,25.23
2022-08-05T14:16:08.908Z,25.14
2022-08-05T14:18:06.000Z,25.66
2022-08-05T14:20:49.129Z,26.14
2022-08-05T14:23:25.660Z,25.51
2022-08-05T14:25:57.969Z,25.25
2022-08-05T14:28:27.309Z,25.14
2022-08-05T14:31:00.524Z,25.17
2022-08-05T14:33:56.655Z,24.93
2022-08-05T14:36:21.227Z,25.26
2022-08-05T14:38:51.808Z,25.35
2022-08-05T14:41:19.632Z,24.77
2022-08-05T14:43:58.911Z,24.44
2022-08-05T14:46:30.825Z,24.07
2022-08-05T14:49:06.794Z,23.79
2022-08-05T14:51:42.513Z,23.58
2022-08-05T14:54:29.548Z,23.98
2022-08-05T14:56:58.956Z,23.70
2022-08-05T14:59:29.470Z,23.25
2022-08-05T15:02:03.332Z,22.90
2022-08-05T15:04:30.938Z,22.59
2022-08-05T15:07:00.077Z,22.29
2022-08-05T15:09:51.152Z,22.26
2022-08-05T15:12:16.419Z,22.68
2022-08-05T15:14:50.301Z,22.32
2022-08-05T15:17:46.815Z,21.93
2022-08-05T15:20:18.834Z,21.74
2022-08-05T15:22:54.038Z,21.63
2022-08-05T15:25:51.615Z,21.49
2022-08-05T15:28:15.717Z,22.01
2022-08-05T15:30:45.913Z,21.51
2022-08-05T15:34:05.886Z,21.16
2022-08-05T15:36:05.150Z,20.99
2022-08-05T15:38:40.880Z,20.87
2022-08-05T15:41:20.780Z,21.13
2022-08-05T15:43:51.666Z,21.24
2022-08-05T15:46:24.161Z,20.76
2022-08-05T15:49:00.681Z,20.53
2022-08-05T15:52:03.607Z,20.39
2022-08-05T15:54:34.719Z,20.34
2022-08-05T15:57:02.961Z,20.29
2022-08-05T15:59:36.136Z,20.85
2022-08-05T16:02:09.612Z,20.46
2022-08-05T16:04:44.005Z,20.19
2022-08-05T16:07:11.874Z,20.11
2022-08-05T16:09:43.511Z,20.02
2022-08-05T16:12:11.501Z,19.96
2022-08-05T16:14:39.830Z,19.92
2022-08-05T16:17:07.641Z,20.13
2022-08-05T16:20:05.723Z,20.46
2022-08-05T16:22:27.842Z,20.42
2022-08-05T16:25:08.193Z,20.21
2022-08-05T16:28:00.715Z,19.97
2022-08-05T16:30:31.971Z,19.81
2022-08-05T16:33:01.012Z,19.67
2022-08-05T16:35:32.500Z,19.58
2022-08-05T16:38:23.748Z,19.48
2022-08-05T16:40:54.980Z,19.38
2022-08-05T16:43:25.818Z,19.33
2022-08-05T16:46:04.153Z,19.27
2022-08-05T16:48:40.355Z,19.20
2022-08-05T16:51:09.661Z,19.15
2022-08-05T16:54:05.090Z,19.74
2022-08-05T16:56:29.755Z,19.68
2022-08-05T16:58:58.925Z,19.27
2022-08-05T17:01:52.856Z,19.20
2022-08-05T17:04:16.591Z,19.14
2022-08-05T17:06:53.282Z,19.07
2022-08-05T17:09:23.037Z,19.01
2022-08-05T17:11:56.073Z,18.95
2022-08-05T17:14:36.647Z,19.45
2022-08-05T17:17:14.337Z,19.71
2022-08-05T17:19:45.672Z,19.19
2022-08-05T17:22:24.399Z,19.05
2022-08-05T17:25:00.147Z,18.99
2022-08-05T17:27:33.627Z,18.98
2022-08-05T17:30:11.793Z,18.95
2022-08-05T17:32:46.622Z,18.95
2022-08-05T17:35:15.493Z,19.18
2022-08-05T17:37:45.206Z,19.78
2022-08-05T17:40:17.325Z,19.27
2022-08-05T17:42:51.854Z,19.06
2022-08-05T17:45:22.632Z,18.98
2022-08-05T17:47:55.130Z,18.95
2022-08-05T17:50:30.047Z,18.91
2022-08-05T17:53:04.880Z,18.90
2022-08-05T17:55:37.950Z,19.48
2022-08-05T17:58:10.992Z,19.34
2022-08-05T18:00:45.181Z,19.13
2022-08-05T18:03:48.517Z,19.07
2022-08-05T18:06:12.319Z,19.05
2022-08-05T18:08:46.087Z,19.03
2022-08-05T18:11:23.891Z,19.75
2022-08-05T18:13:54.726Z,19.68
2022-08-05T18:16:23.183Z,19.30
2022-08-05T18:18:51.234Z,19.21
2022-08-05T18:21:25.934Z,19.17
2022-08-05T18:23:54.684Z,19.12
2022-08-05T18:26:27.824Z,19.11
2022-08-05T18:28:58.084Z,19.57
2022-08-05T18:31:33.670Z,19.86
2022-08-05T18:34:05.991Z,19.30
2022-08-05T18:36:35.720Z,19.12
2022-08-05T18:39:06.599Z,19.01
2022-08-05T18:41:55.344Z,19.43
2022-08-05T18:44:35.013Z,19.71
2022-08-05T18:47:04.380Z,20.04
2022-08-05T18:49:57.887Z,19.34
2022-08-05T18:52:35.577Z,18.91
2022-08-05T18:55:10.660Z,18.76
2022-08-05T18:57:43.610Z,18.66
2022-08-05T19:00:26.997Z,18.52
2022-08-05T19:03:03.300Z,18.43
2022-08-05T19:06:13.328Z,18.37
2022-08-05T19:08:30.767Z,18.27
2022-08-05T19:11:04.552Z,18.17
2022-08-05T19:13:35.913Z,18.09
2022-08-05T19:16:24.948Z,18.62
2022-08-05T19:18:53.940Z,19.14
2022-08-05T19:21:25.219Z,18.51
2022-08-05T19:24:07.245Z,18.13
2022-08-05T19:26:54.517Z,17.95
2022-08-05T19:29:36.436Z,17.84
2022-08-05T19:32:11.686Z,17.73
2022-08-05T19:34:39.785Z,17.66
2022-08-05T19:37:07.838Z,17.57
2022-08-05T19:39:45.294Z,17.51
2022-08-05T19:42:35.561Z,17.44
2022-08-05T19:45:06.515Z,18.10
2022-08-05T19:47:37.900Z,17.69
2022-08-05T19:50:07.887Z,17.42
2022-08-05T19:52:38.380Z,17.32
2022-08-05T19:56:14.842Z,17.22
2022-08-05T19:58:19.484Z,17.15
2022-08-05T20:00:42.933Z,17.10
2022-08-05T20:03:11.599Z,17.85
2022-08-05T20:05:49.864Z,17.40
2022-08-05T20:08:18.860Z,17.10
2022-08-05T20:10:49.801Z,17.02
2022-08-05T20:13:18.248Z,16.95
2022-08-05T20:15:58.434Z,16.87
2022-08-05T20:18:33.806Z,16.84
2022-08-05T20:21:06.708Z,16.79
2022-08-05T20:23:50.887Z,17.47
2022-08-05T20:26:21.287Z,17.09
2022-08-05T20:28:55.883Z,16.83
2022-08-05T20:31:36.721Z,16.74
2022-08-05T20:34:12.309Z,16.69
2022-08-05T20:36:43.176Z,16.64
2022-08-05T20:39:16.167Z,16.58
2022-08-05T20:41:45.242Z,16.77
2022-08-05T20:44:29.817Z,17.17
2022-08-05T20:47:00.559Z,16.69
2022-08-05T20:49:28.681Z,16.57
2022-08-05T20:51:57.838Z,16.49
2022-08-05T20:54:43.260Z,16.42
2022-08-05T20:57:42.003Z,16.32
2022-08-05T21:00:20.613Z,16.26
2022-08-05T21:03:01.338Z,16.29
2022-08-05T21:05:47.901Z,16.93
2022-08-05T21:08:17.693Z,16.36
2022-08-05T21:10:48.674Z,16.25
2022-08-05T21:13:26.096Z,16.16
2022-08-05T21:16:06.451Z,16.10
2022-08-05T21:18:36.243Z,16.05
2022-08-05T21:21:04.141Z,16.00
2022-08-05T21:23:37.174Z,16.47
2022-08-05T21:26:12.418Z,16.54
2022-08-05T21:28:50.576Z,16.09
2022-08-05T21:31:19.230Z,15.98
2022-08-05T21:33:49.533Z,15.94
2022-08-05T21:36:19.220Z,15.89
2022-08-05T21:38:55.864Z,15.84
2022-08-05T21:41:23.960Z,15.80
2022-08-05T21:44:01.526Z,16.04
2022-08-05T21:46:35.101Z,16.35
2022-08-05T21:49:10.891Z,15.86
2022-08-05T21:52:22.105Z,15.72
2022-08-05T21:54:43.241Z,15.62
2022-08-05T21:57:30.276Z,15.59
2022-08-05T22:00:06.980Z,15.53
2022-08-05T22:02:45.074Z,15.52
2022-08-05T22:05:13.841Z,16.23
2022-08-05T22:07:59.216Z,15.62
2022-08-05T22:10:29.500Z,15.43
2022-08-05T22:13:09.269Z,15.34
2022-08-05T22:16:01.395Z,15.27
2022-08-05T22:18:35.329Z,15.19
2022-08-05T22:21:04.766Z,15.15
2022-08-05T22:24:02.953Z,15.12
2022-08-05T22:26:54.646Z,15.72
2022-08-05T22:29:26.295Z,15.29
2022-08-05T22:31:59.751Z,15.08
2022-08-05T22:34:31.920Z,15.00
2022-08-05T22:37:00.073Z,14.94
2022-08-05T22:39:33.358Z,14.89
2022-08-05T22:42:12.268Z,14.82
2022-08-05T22:44:48.189Z,14.79
2022-08-05T22:47:29.217Z,15.28
2022-08-05T22:50:20.522Z,15.23
2022-08-05T22:52:48.590Z,14.87
2022-08-05T22:55:18.928Z,14.78
2022-08-05T22:57:49.274Z,14.73
2022-08-05T23:00:18.382Z,14.66
2022-08-05T23:02:49.495Z,14.62
2022-08-05T23:05:17.363Z,14.57
2022-08-05T23:07:48.882Z,14.54
2022-08-05T23:10:20.750Z,15.33
2022-08-05T23:12:51.679Z,14.81
2022-08-05T23:15:29.064Z,14.64
2022-08-05T23:18:02.284Z,14.60
2022-08-05T23:20:37.092Z,14.54
2022-08-05T23:23:08.265Z,14.52
2022-08-05T23:25:52.859Z,14.49
2022-08-05T23:28:23.883Z,14.46
2022-08-05T23:30:55.302Z,14.83
2022-08-05T23:33:26.192Z,15.09
2022-08-05T23:36:19.282Z,14.59
2022-08-05T23:38:46.633Z,14.46
2022-08-05T23:41:15.034Z,14.41
2022-08-05T23:44:05.087Z,14.36
2022-08-05T23:46:31.963Z,14.31
2022-08-05T23:49:02.154Z,14.26
2022-08-05T23:52:16.402Z,14.22
2022-08-05T23:54:43.827Z,14.91
2022-08-05T23:57:12.219Z,14.53
